Time;durP1;ratioP1;P1;durP2;ratioP2;P2;SDS_P1;SDS_P2;PMS_P1;PMS_P2;Temp;Humidity;BMP_temperature;BMP_pressure;BME280_temperature;BME280_humidity;BME280_pressure;Samples;Min_cycle;Max_cycle;Signal;HPM_P1;HPM_P2
2023/01/27 00:00:06;;;;;;;18.43;11.03;;;4.50;99.90;;;;;;5022238;28;20186;-78
2023/01/27 00:02:32;;;;;;;23.27;10.97;;;4.50;99.90;;;;;;5047874;28;20185;-77
2023/01/27 00:04:58;;;;;;;21.87;11.70;;;4.30;99.90;;;;;;5056057;28;20464;-77
2023/01/27 00:07:24;;;;;;;23.70;12.10;;;4.30;99.90;;;;;;5045546;28;20993;-78
2023/01/27 00:09:50;;;;;;;20.73;12.40;;;4.30;99.90;;;;;;5045264;28;20417;-77
2023/01/27 00:15:06;;;;;;;18.50;12.10;;;4.10;99.90;;;;;;5033684;28;20657;-78
2023/01/27 00:17:32;;;;;;;19.37;11.47;;;4.30;99.90;;;;;;5043030;28;20505;-77
2023/01/27 00:20:00;;;;;;;19.43;10.60;;;4.20;99.90;;;;;;5026943;28;20443;-77
2023/01/27 00:25:10;;;;;;;15.53;8.80;;;4.30;99.90;;;;;;5066431;28;20546;-77
2023/01/27 00:27:36;;;;;;;14.27;8.83;;;4.40;99.90;;;;;;5043740;28;20992;-77
2023/01/27 00:30:03;;;;;;;19.73;9.60;;;4.20;99.90;;;;;;5046552;28;20621;-77
2023/01/27 00:35:15;;;;;;;15.77;9.70;;;4.20;99.90;;;;;;5039977;28;20494;-77
2023/01/27 00:37:42;;;;;;;13.40;8.50;;;4.30;99.90;;;;;;5065916;28;20954;-77
2023/01/27 00:40:09;;;;;;;12.90;7.87;;;4.50;99.90;;;;;;5050770;28;20482;-76
2023/01/27 00:42:34;;;;;;;15.43;8.97;;;4.30;99.90;;;;;;5023893;28;20433;-77
2023/01/27 00:47:46;;;;;;;16.83;9.07;;;4.30;99.90;;;;;;5054372;28;20209;-77
2023/01/27 00:50:12;;;;;;;15.90;8.40;;;4.30;99.90;;;;;;5062907;28;20570;-78
2023/01/27 00:52:38;;;;;;;15.93;9.23;;;4.10;99.90;;;;;;5062602;28;20441;-77
2023/01/27 00:55:05;;;;;;;13.83;8.50;;;4.40;99.90;;;;;;5062151;28;20427;-77
2023/01/27 00:57:30;;;;;;;15.50;8.57;;;4.30;99.90;;;;;;5054090;28;20755;-77
2023/01/27 00:59:56;;;;;;;13.37;7.57;;;4.20;99.90;;;;;;5056562;28;20905;-78
2023/01/27 01:02:21;;;;;;;12.97;9.00;;;4.40;99.90;;;;;;5049413;28;20520;-78
2023/01/27 01:04:47;;;;;;;12.87;7.70;;;4.20;99.90;;;;;;5059622;28;20292;-77
2023/01/27 01:07:13;;;;;;;10.30;7.30;;;4.20;99.90;;;;;;5034854;28;20205;-77
2023/01/27 01:09:38;;;;;;;14.50;8.20;;;4.30;99.90;;;;;;5011526;28;20193;-78
2023/01/27 01:12:04;;;;;;;11.93;7.70;;;4.40;99.90;;;;;;5019896;28;20182;-78
2023/01/27 01:14:30;;;;;;;13.73;7.57;;;4.50;99.90;;;;;;5023712;28;20697;-77
2023/01/27 01:16:55;;;;;;;13.40;9.30;;;4.50;99.90;;;;;;5053793;28;20441;-77
2023/01/27 01:19:22;;;;;;;16.53;8.20;;;4.40;99.90;;;;;;5015125;28;20193;-78
2023/01/27 01:21:47;;;;;;;14.30;8.80;;;4.20;99.90;;;;;;5022240;28;20281;-77
2023/01/27 01:24:13;;;;;;;15.07;9.70;;;4.40;99.90;;;;;;5063076;28;20546;-79
2023/01/27 01:26:38;;;;;;;16.17;9.80;;;4.30;99.90;;;;;;5054779;28;20225;-78
2023/01/27 01:29:04;;;;;;;15.57;11.10;;;4.20;99.90;;;;;;5028376;28;20217;-77
2023/01/27 01:31:30;;;;;;;14.47;10.07;;;4.20;99.90;;;;;;5059619;28;20681;-78
2023/01/27 01:33:55;;;;;;;17.27;10.90;;;4.20;99.90;;;;;;5039234;28;20248;-77
2023/01/27 01:36:21;;;;;;;15.47;10.03;;;4.20;99.90;;;;;;5026071;28;20256;-77
2023/01/27 01:38:47;;;;;;;15.80;10.50;;;4.10;99.90;;;;;;5054796;28;20610;-77
2023/01/27 01:41:19;;;;;;;14.67;9.53;;;4.10;99.90;;;;;;5052822;28;20660;-78
2023/01/27 01:43:45;;;;;;;14.97;10.67;;;4.00;99.90;;;;;;5052244;28;21277;-78
2023/01/27 01:46:11;;;;;;;14.47;9.13;;;4.10;99.90;;;;;;5057854;28;20456;-78
2023/01/27 01:48:59;;;;;;;16.87;9.17;;;4.00;99.90;;;;;;5027248;28;20448;-78
2023/01/27 01:51:35;;;;;;;14.07;7.93;;;4.10;99.90;;;;;;5053481;28;20420;-78
2023/01/27 01:54:15;;;;;;;11.80;7.50;;;3.80;99.90;;;;;;5031340;28;20427;-78
2023/01/27 01:56:45;;;;;;;10.40;6.33;;;4.00;99.90;;;;;;5041761;28;20449;-78
2023/01/27 01:59:32;;;;;;;10.20;6.50;;;3.80;99.90;;;;;;5032463;28;20431;-78
2023/01/27 02:02:02;;;;;;;10.03;6.30;;;3.90;99.90;;;;;;5031353;28;20428;-77
2023/01/27 02:04:33;;;;;;;14.43;6.83;;;3.90;99.90;;;;;;5069163;28;20451;-78
2023/01/27 02:07:12;;;;;;;12.57;7.87;;;4.00;99.90;;;;;;5016868;28;20444;-78
2023/01/27 02:09:42;;;;;;;18.97;10.80;;;3.80;99.90;;;;;;5041334;28;20446;-78
2023/01/27 02:12:08;;;;;;;17.10;10.17;;;3.70;99.90;;;;;;5042579;28;20431;-77
2023/01/27 02:14:37;;;;;;;23.90;10.90;;;3.90;99.90;;;;;;5042162;28;20416;-78
2023/01/27 02:17:04;;;;;;;16.23;9.40;;;3.70;99.90;;;;;;5036285;28;20466;-78
2023/01/27 02:19:36;;;;;;;20.57;10.43;;;3.90;99.90;;;;;;5051565;28;20765;-78
2023/01/27 02:22:04;;;;;;;16.53;10.20;;;3.80;99.90;;;;;;5051702;28;20431;-78
2023/01/27 02:24:36;;;;;;;17.50;10.73;;;3.70;99.90;;;;;;5051726;28;20954;-78
2023/01/27 02:27:02;;;;;;;15.10;9.67;;;3.90;99.90;;;;;;5051058;28;20440;-78
2023/01/27 02:29:28;;;;;;;16.50;9.83;;;3.80;99.90;;;;;;5033823;28;20422;-78
2023/01/27 02:31:53;;;;;;;20.60;10.63;;;3.70;99.90;;;;;;5052028;28;20170;-78
2023/01/27 02:34:24;;;;;;;18.27;9.90;;;3.90;99.90;;;;;;5033664;28;20643;-77
2023/01/27 02:36:54;;;;;;;18.03;10.40;;;3.80;99.90;;;;;;5017047;28;20248;-77
2023/01/27 02:39:24;;;;;;;21.00;10.80;;;3.60;99.90;;;;;;5051356;28;20455;-78
2023/01/27 02:41:53;;;;;;;16.93;9.50;;;3.90;99.90;;;;;;5051209;28;20492;-78
2023/01/27 02:44:19;;;;;;;18.17;11.63;;;3.60;99.90;;;;;;5033161;28;20499;-78
2023/01/27 02:46:45;;;;;;;16.20;9.87;;;3.80;99.90;;;;;;5050866;28;21011;-78
2023/01/27 02:49:11;;;;;;;16.43;10.10;;;3.80;99.90;;;;;;5033425;28;20486;-78
2023/01/27 02:51:38;;;;;;;16.30;9.90;;;3.70;99.90;;;;;;5050608;28;20420;-78
2023/01/27 02:54:03;;;;;;;14.77;9.00;;;3.60;99.90;;;;;;5033240;28;20181;-78
2023/01/27 02:56:29;;;;;;;16.93;10.03;;;3.60;99.90;;;;;;5050709;28;20451;-78
2023/01/27 02:58:55;;;;;;;14.07;9.87;;;3.50;99.90;;;;;;5016592;28;20177;-78
2023/01/27 03:01:23;;;;;;;13.80;8.80;;;3.70;99.90;;;;;;5033103;28;20205;-78
2023/01/27 03:03:50;;;;;;;15.17;9.10;;;3.80;99.90;;;;;;5050780;28;20174;-77
2023/01/27 03:06:16;;;;;;;15.20;8.20;;;3.70;99.90;;;;;;5051030;28;20447;-78
2023/01/27 03:08:43;;;;;;;14.00;9.07;;;3.70;99.90;;;;;;5057845;28;20408;-78
2023/01/27 03:11:09;;;;;;;14.53;8.50;;;3.70;99.90;;;;;;5021701;28;20413;-77
2023/01/27 03:13:38;;;;;;;14.20;8.63;;;3.60;99.90;;;;;;5020941;28;20417;-77
2023/01/27 03:18:49;;;;;;;14.23;8.47;;;3.50;99.90;;;;;;5034882;28;20409;-77
2023/01/27 03:21:18;;;;;;;12.37;7.57;;;3.40;99.90;;;;;;5014940;28;20453;-78
2023/01/27 03:23:47;;;;;;;13.63;8.57;;;3.50;99.90;;;;;;5015100;28;20421;-78
2023/01/27 03:26:13;;;;;;;11.67;7.80;;;3.80;99.90;;;;;;5013712;28;20445;-78
2023/01/27 03:28:39;;;;;;;12.10;7.10;;;3.60;99.90;;;;;;5031159;28;20448;-78
2023/01/27 03:31:08;;;;;;;15.63;7.43;;;3.80;99.90;;;;;;5013134;28;20937;-78
2023/01/27 03:33:34;;;;;;;14.10;7.70;;;3.70;99.90;;;;;;5012919;28;20183;-78
2023/01/27 03:46:59;;;;;;;11.60;6.40;;;3.50;99.90;;;;;;5034416;28;20491;-78
2023/01/27 03:49:25;;;;;;;15.43;8.03;;;3.60;99.90;;;;;;5019908;28;20843;-78
2023/01/27 03:51:50;;;;;;;13.60;7.10;;;3.50;99.90;;;;;;5054629;28;20265;-78
2023/01/27 03:54:16;;;;;;;13.33;7.83;;;3.60;99.90;;;;;;5019702;28;20178;-78
2023/01/27 03:56:42;;;;;;;12.30;7.80;;;3.60;99.90;;;;;;5054674;28;20252;-78
2023/01/27 03:59:07;;;;;;;22.07;8.70;;;3.60;99.90;;;;;;5019573;28;20184;-78
2023/01/27 04:01:33;;;;;;;13.83;7.93;;;3.90;99.90;;;;;;5053877;28;20202;-78
2023/01/27 04:06:57;;;;;;;16.90;8.20;;;3.60;99.90;;;;;;5054199;28;20593;-78
2023/01/27 04:09:28;;;;;;;14.83;8.87;;;3.70;99.90;;;;;;5048482;28;20417;-78
2023/01/27 04:11:59;;;;;;;19.83;10.10;;;3.50;99.90;;;;;;5033423;28;20424;-77
2023/01/27 04:14:28;;;;;;;14.53;8.90;;;3.40;99.90;;;;;;5032449;28;20521;-78
2023/01/27 04:16:59;;;;;;;16.90;9.37;;;3.40;99.90;;;;;;5032714;28;20444;-77
2023/01/27 04:19:25;;;;;;;14.40;9.67;;;3.50;99.90;;;;;;5015215;28;20421;-77
2023/01/27 04:21:51;;;;;;;17.30;9.90;;;3.30;99.90;;;;;;5033506;28;20413;-78
2023/01/27 04:24:26;;;;;;;14.17;8.67;;;3.60;99.90;;;;;;5032660;28;20545;-77
2023/01/27 04:27:03;;;;;;;17.50;9.30;;;3.70;99.90;;;;;;5015106;28;20471;-77
2023/01/27 04:29:35;;;;;;;14.97;9.40;;;3.70;99.90;;;;;;5014952;28;20420;-79
2023/01/27 04:32:02;;;;;;;17.10;8.97;;;3.50;99.90;;;;;;5032505;28;20437;-78
2023/01/27 04:34:28;;;;;;;16.00;9.60;;;3.50;99.90;;;;;;5030039;28;20426;-77
2023/01/27 04:36:55;;;;;;;14.77;8.57;;;3.50;99.90;;;;;;4998099;28;20473;-78
2023/01/27 04:39:21;;;;;;;16.10;9.47;;;3.50;99.90;;;;;;5020269;28;20452;-79
2023/01/27 04:41:48;;;;;;;16.23;10.30;;;3.70;99.90;;;;;;5033099;28;20485;-78
2023/01/27 04:44:14;;;;;;;15.47;10.00;;;3.40;99.90;;;;;;5033476;28;20890;-78
2023/01/27 04:46:40;;;;;;;16.93;10.00;;;3.60;99.90;;;;;;5028248;28;20483;-79
2023/01/27 04:49:06;;;;;;;15.30;10.20;;;3.40;99.90;;;;;;5033649;28;20496;-78
2023/01/27 04:51:32;;;;;;;14.20;8.60;;;3.60;99.90;;;;;;5046589;28;20439;-78
2023/01/27 04:53:59;;;;;;;16.30;10.43;;;3.70;99.90;;;;;;5051868;28;20893;-78
2023/01/27 04:56:27;;;;;;;17.53;9.97;;;3.60;99.90;;;;;;5034706;28;20594;-77
2023/01/27 04:58:56;;;;;;;17.23;10.70;;;3.60;99.90;;;;;;5018216;28;20416;-77
2023/01/27 05:01:22;;;;;;;16.60;9.83;;;3.50;99.90;;;;;;5034264;28;20848;-77
2023/01/27 05:03:48;;;;;;;17.57;10.00;;;3.50;99.90;;;;;;5017669;28;20507;-79
2023/01/27 05:06:15;;;;;;;20.20;9.77;;;3.60;99.90;;;;;;5018922;28;20266;-78
2023/01/27 05:08:41;;;;;;;19.13;10.57;;;3.60;99.90;;;;;;5053205;28;20424;-77
2023/01/27 05:11:07;;;;;;;15.10;9.17;;;3.70;99.90;;;;;;5034287;28;20902;-78
2023/01/27 05:13:33;;;;;;;18.97;11.03;;;3.70;99.90;;;;;;5033369;28;20476;-78
2023/01/27 05:16:18;;;;;;;15.40;10.20;;;3.60;99.90;;;;;;5032392;28;20906;-77
2023/01/27 05:18:46;;;;;;;15.67;10.60;;;3.60;99.90;;;;;;5015148;28;20449;-78
2023/01/27 05:21:14;;;;;;;17.17;10.37;;;3.60;99.90;;;;;;5032754;28;20425;-77
2023/01/27 05:23:40;;;;;;;14.70;10.00;;;3.80;99.90;;;;;;5015257;28;20426;-77
2023/01/27 05:26:17;;;;;;;17.47;9.50;;;3.60;99.90;;;;;;5014193;28;20433;-78
2023/01/27 05:28:44;;;;;;;17.57;10.20;;;3.80;99.90;;;;;;5032806;28;20413;-78
2023/01/27 05:31:18;;;;;;;14.90;9.83;;;3.60;99.90;;;;;;5014584;28;20417;-78
2023/01/27 05:33:45;;;;;;;18.20;10.67;;;3.70;99.90;;;;;;5032029;28;20415;-78
2023/01/27 05:36:13;;;;;;;17.77;9.90;;;3.70;99.90;;;;;;5032491;28;20519;-78
2023/01/27 05:38:40;;;;;;;16.00;9.70;;;4.00;99.90;;;;;;5032055;28;20428;-78
2023/01/27 05:41:07;;;;;;;18.33;10.57;;;3.70;99.90;;;;;;5034033;28;20431;-78
2023/01/27 05:43:35;;;;;;;15.47;9.40;;;3.80;99.90;;;;;;5048244;28;20428;-76
2023/01/27 05:46:09;;;;;;;14.03;9.10;;;3.80;99.90;;;;;;5029297;28;20463;-76
2023/01/27 05:48:41;;;;;;;13.73;8.90;;;3.90;99.90;;;;;;5031324;28;20423;-76
2023/01/27 05:51:07;;;;;;;15.70;10.10;;;3.90;99.90;;;;;;5027282;28;20495;-76
2023/01/27 05:53:33;;;;;;;14.60;9.70;;;4.10;99.90;;;;;;5051769;28;20996;-78
2023/01/27 05:56:00;;;;;;;16.83;9.53;;;3.90;99.90;;;;;;5051745;28;20412;-78
2023/01/27 05:58:26;;;;;;;13.30;9.30;;;3.90;99.90;;;;;;5017485;28;20513;-78
2023/01/27 06:00:52;;;;;;;14.27;9.10;;;4.10;99.90;;;;;;5017057;28;20695;-77
2023/01/27 06:03:18;;;;;;;10.40;7.63;;;4.00;99.90;;;;;;5033448;28;20775;-77
2023/01/27 06:05:56;;;;;;;15.13;9.80;;;4.00;99.90;;;;;;5033346;28;20448;-77
2023/01/27 06:08:25;;;;;;;16.00;9.50;;;4.10;99.90;;;;;;5051704;28;20427;-77
2023/01/27 06:10:52;;;;;;;13.63;8.97;;;3.90;99.90;;;;;;5017355;28;20410;-77
2023/01/27 06:13:21;;;;;;;14.60;9.30;;;3.90;99.90;;;;;;5031721;28;20428;-77
2023/01/27 06:15:47;;;;;;;15.80;8.90;;;4.00;99.90;;;;;;5030166;28;20425;-78
2023/01/27 06:18:14;;;;;;;14.40;8.93;;;3.90;99.90;;;;;;5013976;28;20801;-78
2023/01/27 06:20:40;;;;;;;11.47;7.87;;;4.10;99.90;;;;;;5030939;28;20418;-78
2023/01/27 06:23:11;;;;;;;14.50;9.20;;;4.00;99.90;;;;;;5013903;28;20429;-78
2023/01/27 06:25:41;;;;;;;15.73;8.63;;;3.90;99.90;;;;;;5013832;28;20457;-78
2023/01/27 06:28:08;;;;;;;13.20;8.60;;;4.00;99.90;;;;;;5031893;28;20433;-78
2023/01/27 06:30:35;;;;;;;13.80;8.07;;;4.10;99.90;;;;;;5014172;28;20465;-78
2023/01/27 06:33:01;;;;;;;13.30;8.93;;;3.90;99.90;;;;;;5013723;28;20405;-78
2023/01/27 06:35:27;;;;;;;12.73;8.40;;;4.10;99.90;;;;;;5030682;28;20416;-78
2023/01/27 06:37:53;;;;;;;14.70;9.20;;;4.00;99.90;;;;;;4999600;28;20452;-78
2023/01/27 06:40:19;;;;;;;13.87;9.80;;;3.90;99.90;;;;;;5014547;28;20926;-78
2023/01/27 06:42:44;;;;;;;12.37;8.27;;;3.90;99.90;;;;;;5051678;28;20182;-78
2023/01/27 06:45:11;;;;;;;14.33;9.03;;;4.20;99.90;;;;;;5047366;28;20282;-78
2023/01/27 06:47:38;;;;;;;13.07;8.17;;;4.20;99.90;;;;;;4996951;28;20263;-78
2023/01/27 06:50:05;;;;;;;12.73;8.77;;;4.10;99.90;;;;;;5030639;28;20421;-78
2023/01/27 06:52:30;;;;;;;13.70;7.70;;;4.20;99.90;;;;;;5051135;28;20454;-78
2023/01/27 06:54:56;;;;;;;12.80;8.07;;;4.10;99.90;;;;;;5050406;28;20428;-78
2023/01/27 06:57:22;;;;;;;10.43;7.20;;;4.10;99.90;;;;;;5050480;28;20622;-78
2023/01/27 06:59:47;;;;;;;12.50;8.50;;;4.10;99.90;;;;;;5051098;28;20189;-78
2023/01/27 07:02:13;;;;;;;11.50;8.53;;;4.10;99.90;;;;;;5033245;28;20177;-78
2023/01/27 07:04:39;;;;;;;11.90;7.73;;;4.00;99.90;;;;;;5050582;28;20570;-78
2023/01/27 07:07:04;;;;;;;10.30;7.70;;;3.90;99.90;;;;;;5050527;28;20749;-78
2023/01/27 07:09:30;;;;;;;10.97;7.77;;;4.10;99.90;;;;;;5044869;28;20234;-78
2023/01/27 07:11:56;;;;;;;16.10;8.60;;;4.00;99.90;;;;;;5012988;28;20182;-78
2023/01/27 07:14:21;;;;;;;11.90;8.27;;;3.70;99.90;;;;;;5028829;28;20199;-78
2023/01/27 07:16:47;;;;;;;10.80;7.07;;;4.00;99.90;;;;;;5035871;28;20202;-78
2023/01/27 07:19:13;;;;;;;11.60;8.50;;;4.10;99.90;;;;;;5055093;28;20536;-78
2023/01/27 07:21:39;;;;;;;17.33;7.60;;;4.00;99.90;;;;;;5036511;28;20173;-78
2023/01/27 07:24:05;;;;;;;11.67;7.87;;;3.90;99.90;;;;;;5047959;28;20467;-78
2023/01/27 07:26:31;;;;;;;11.10;7.80;;;4.20;99.90;;;;;;5025290;28;20441;-78
2023/01/27 07:28:57;;;;;;;9.40;6.50;;;4.00;99.90;;;;;;5047753;28;20427;-77
2023/01/27 07:31:23;;;;;;;9.93;6.90;;;4.10;99.90;;;;;;5026634;28;20638;-78
2023/01/27 07:33:48;;;;;;;10.73;7.57;;;4.00;99.90;;;;;;5050488;28;20458;-77
2023/01/27 07:36:14;;;;;;;9.70;7.00;;;4.20;99.90;;;;;;5036278;28;20197;-78
2023/01/27 07:38:40;;;;;;;10.00;7.07;;;4.10;99.90;;;;;;5050892;28;20196;-77
2023/01/27 07:41:06;;;;;;;11.03;7.10;;;4.10;99.90;;;;;;5048778;28;20202;-78
2023/01/27 07:43:35;;;;;;;10.83;7.40;;;4.30;99.90;;;;;;5062230;28;20189;-78
2023/01/27 07:46:00;;;;;;;9.83;7.43;;;4.10;99.90;;;;;;5068209;28;20485;-78
2023/01/27 07:48:26;;;;;;;11.27;7.30;;;4.10;99.90;;;;;;5056821;28;20523;-78
2023/01/27 07:50:52;;;;;;;11.73;8.17;;;4.30;99.90;;;;;;5044958;28;20181;-78
2023/01/27 07:53:17;;;;;;;10.90;7.03;;;4.30;99.90;;;;;;5048377;28;20452;-77
2023/01/27 07:55:43;;;;;;;10.20;7.00;;;4.40;99.90;;;;;;5050746;28;20197;-78
2023/01/27 07:58:09;;;;;;;11.23;8.20;;;4.30;99.90;;;;;;5029230;28;20216;-78
2023/01/27 08:00:35;;;;;;;10.83;8.17;;;4.40;99.90;;;;;;5028162;28;20177;-78
2023/01/27 08:03:01;;;;;;;11.37;8.17;;;4.30;99.90;;;;;;5045541;28;20209;-78
2023/01/27 08:05:30;;;;;;;10.60;7.60;;;4.30;99.90;;;;;;5029571;28;20460;-78
2023/01/27 08:07:57;;;;;;;13.53;8.73;;;4.30;99.90;;;;;;5036589;28;20462;-78
2023/01/27 08:10:22;;;;;;;13.67;8.70;;;4.40;99.90;;;;;;5036801;28;20931;-78
2023/01/27 08:12:48;;;;;;;11.03;7.87;;;4.50;99.90;;;;;;5017023;28;20437;-77
2023/01/27 08:15:14;;;;;;;13.30;8.50;;;4.50;99.90;;;;;;5031913;28;20241;-78
2023/01/27 08:17:40;;;;;;;9.70;7.23;;;4.40;99.90;;;;;;5014206;28;20197;-78
2023/01/27 08:20:07;;;;;;;12.03;7.83;;;4.40;99.90;;;;;;5055385;28;20448;-78
2023/01/27 08:22:32;;;;;;;10.43;8.07;;;4.40;99.90;;;;;;5059513;28;20222;-77
2023/01/27 08:24:58;;;;;;;11.83;8.50;;;4.50;99.90;;;;;;5024835;28;20491;-78
2023/01/27 08:27:24;;;;;;;10.80;7.60;;;4.30;99.90;;;;;;5024307;28;20214;-78
2023/01/27 08:29:49;;;;;;;10.10;7.57;;;4.20;99.90;;;;;;5036988;28;20675;-78
2023/01/27 08:32:15;;;;;;;10.17;7.20;;;4.40;99.90;;;;;;5056425;28;20229;-77
2023/01/27 08:34:41;;;;;;;9.60;7.40;;;4.50;99.90;;;;;;5031282;28;20206;-78
2023/01/27 08:37:06;;;;;;;11.53;7.90;;;4.50;99.90;;;;;;5018130;28;20197;-78
2023/01/27 08:39:33;;;;;;;10.77;8.03;;;4.40;99.90;;;;;;5041980;28;20201;-76
2023/01/27 08:41:59;;;;;;;9.50;7.10;;;4.30;99.90;;;;;;5058387;28;20209;-78
2023/01/27 08:44:27;;;;;;;11.03;7.70;;;4.50;99.90;;;;;;5061681;28;20467;-78
2023/01/27 08:46:53;;;;;;;11.20;7.37;;;4.40;99.90;;;;;;5063198;28;20470;-78
2023/01/27 08:49:19;;;;;;;9.90;7.60;;;4.20;99.90;;;;;;5033210;28;20949;-77
2023/01/27 08:51:45;;;;;;;14.00;7.90;;;4.50;99.90;;;;;;5065043;28;20409;-78
2023/01/27 08:54:11;;;;;;;9.83;7.90;;;4.30;99.90;;;;;;5055403;28;20209;-77
2023/01/27 08:56:36;;;;;;;12.70;8.20;;;4.60;99.90;;;;;;5061561;28;20218;-78
2023/01/27 08:59:02;;;;;;;12.07;7.63;;;4.30;99.90;;;;;;5059894;28;20177;-77
2023/01/27 09:01:28;;;;;;;11.67;7.90;;;4.50;99.90;;;;;;5033935;28;20574;-78
2023/01/27 09:03:53;;;;;;;10.83;8.27;;;4.60;99.90;;;;;;5057348;28;20177;-78
2023/01/27 09:06:20;;;;;;;11.33;7.97;;;4.40;99.90;;;;;;5067386;28;20299;-78
2023/01/27 09:09:07;;;;;;;8.87;6.50;;;4.50;99.90;;;;;;5040266;28;20658;-78
2023/01/27 09:11:34;;;;;;;11.23;7.63;;;4.50;99.90;;;;;;5059894;28;20423;-77
2023/01/27 09:13:59;;;;;;;9.43;7.10;;;4.70;99.90;;;;;;5035353;28;20423;-78
2023/01/27 09:16:25;;;;;;;10.67;7.93;;;4.40;99.90;;;;;;5065640;28;20999;-77
2023/01/27 09:18:51;;;;;;;11.00;8.67;;;4.30;99.90;;;;;;5060354;28;20654;-77
2023/01/27 09:21:17;;;;;;;10.60;8.20;;;4.40;99.90;;;;;;5036076;28;20425;-77
2023/01/27 09:23:42;;;;;;;11.27;8.13;;;4.50;99.90;;;;;;5064039;28;20181;-77
2023/01/27 09:26:08;;;;;;;10.53;7.77;;;4.50;99.90;;;;;;5063323;28;20225;-77
2023/01/27 09:28:33;;;;;;;9.97;7.70;;;4.50;99.90;;;;;;5049390;28;20183;-77
2023/01/27 09:30:59;;;;;;;11.83;8.50;;;4.50;99.90;;;;;;5055828;28;20196;-77
2023/01/27 09:33:26;;;;;;;13.07;9.50;;;4.60;99.90;;;;;;5045927;28;20187;-77
2023/01/27 09:36:01;;;;;;;16.73;9.97;;;4.30;99.90;;;;;;5048277;28;20816;-77
2023/01/27 09:38:31;;;;;;;14.03;9.10;;;4.40;99.90;;;;;;5011767;28;20431;-77
2023/01/27 09:41:26;;;;;;;13.07;8.07;;;4.40;99.90;;;;;;5056921;28;20428;-77
2023/01/27 09:44:07;;;;;;;10.77;7.33;;;4.50;99.90;;;;;;5062804;28;20411;-77
2023/01/27 09:47:17;;;;;;;13.10;9.53;;;4.50;99.90;;;;;;5040794;28;20504;-77
2023/01/27 09:50:13;;;;;;;12.00;7.83;;;4.50;99.90;;;;;;4921127;29;20435;-77
2023/01/27 09:52:56;;;;;;;11.63;8.10;;;4.50;99.90;;;;;;5065183;28;20424;-78
2023/01/27 09:55:25;;;;;;;13.30;8.70;;;4.60;99.90;;;;;;5030945;28;20928;-77
2023/01/27 09:58:29;;;;;;;12.30;8.07;;;4.40;99.90;;;;;;5033670;28;20980;-77
2023/01/27 10:01:07;;;;;;;10.43;7.40;;;4.40;99.90;;;;;;4996778;28;20477;-78
2023/01/27 10:03:48;;;;;;;12.33;8.03;;;4.40;99.90;;;;;;5055587;28;20474;-78
2023/01/27 10:06:18;;;;;;;13.13;8.27;;;4.40;99.90;;;;;;5059883;28;20467;-77
2023/01/27 10:09:11;;;;;;;13.13;8.73;;;4.50;99.90;;;;;;5041631;28;20412;-78
2023/01/27 10:11:55;;;;;;;10.83;8.00;;;4.80;99.90;;;;;;5012688;28;20530;-78
2023/01/27 10:14:58;;;;;;;13.43;8.17;;;4.70;99.90;;;;;;5062635;28;20494;-78
2023/01/27 10:17:35;;;;;;;11.33;7.53;;;4.70;99.90;;;;;;5028940;28;21233;-79
2023/01/27 10:20:25;;;;;;;11.80;7.80;;;4.80;99.90;;;;;;5043207;28;20420;-78
2023/01/27 10:23:25;;;;;;;12.60;6.87;;;4.60;99.90;;;;;;5021395;28;20429;-78
2023/01/27 10:26:22;;;;;;;10.93;7.43;;;4.70;99.90;;;;;;5021405;28;20464;-78
2023/01/27 10:28:50;;;;;;;11.07;7.57;;;4.50;99.90;;;;;;5028602;28;20409;-78
2023/01/27 10:31:30;;;;;;;10.57;7.23;;;4.60;99.90;;;;;;5039644;28;20474;-78
2023/01/27 10:34:02;;;;;;;12.60;8.70;;;4.60;99.90;;;;;;5036552;28;20419;-78
2023/01/27 10:36:35;;;;;;;12.03;8.10;;;4.80;99.90;;;;;;5061629;28;20974;-78
2023/01/27 10:39:22;;;;;;;11.30;7.60;;;4.80;99.90;;;;;;5044382;28;20425;-78
2023/01/27 10:41:47;;;;;;;15.87;9.23;;;4.80;99.90;;;;;;5003338;28;20409;-78
2023/01/27 10:44:37;;;;;;;12.67;8.10;;;4.60;99.90;;;;;;5035760;28;20456;-78
2023/01/27 10:47:35;;;;;;;14.93;8.20;;;4.80;99.90;;;;;;5033751;28;20233;-78
2023/01/27 10:50:05;;;;;;;12.63;8.60;;;4.70;99.90;;;;;;5013720;28;20495;-78
2023/01/27 10:52:57;;;;;;;13.27;8.30;;;4.70;99.90;;;;;;5043137;28;20807;-78
2023/01/27 10:55:28;;;;;;;13.83;8.93;;;4.70;99.90;;;;;;5052404;28;20766;-78
2023/01/27 10:58:38;;;;;;;14.67;10.77;;;4.60;99.90;;;;;;5028998;28;20436;-79
2023/01/27 11:01:06;;;;;;;15.40;10.23;;;4.50;99.90;;;;;;5048614;28;20408;-79
2023/01/27 11:03:49;;;;;;;15.73;9.97;;;4.50;99.90;;;;;;5035650;28;20417;-78
2023/01/27 11:06:22;;;;;;;15.93;9.70;;;4.60;99.90;;;;;;5044535;28;20525;-78
2023/01/27 11:08:54;;;;;;;13.90;9.30;;;4.50;99.90;;;;;;5055975;28;20432;-78
2023/01/27 11:14:15;;;;;;;15.07;10.60;;;4.70;99.90;;;;;;5024469;28;20480;-79
2023/01/27 11:16:47;;;;;;;14.60;9.60;;;4.60;99.90;;;;;;5067475;28;20451;-77
2023/01/27 11:19:38;;;;;;;12.93;9.40;;;4.60;99.90;;;;;;5046046;28;20428;-79
2023/01/27 11:22:16;;;;;;;14.43;9.73;;;4.70;99.90;;;;;;4992864;28;20416;-78
2023/01/27 11:24:46;;;;;;;13.93;9.47;;;4.60;99.90;;;;;;5063713;28;20462;-78
2023/01/27 11:27:17;;;;;;;12.20;9.00;;;4.70;99.90;;;;;;5053532;28;20448;-78
2023/01/27 11:29:57;;;;;;;14.10;10.07;;;4.80;99.90;;;;;;5048735;28;20543;-78
2023/01/27 11:32:39;;;;;;;13.80;9.77;;;4.70;99.90;;;;;;5029091;28;20771;-78
2023/01/27 11:35:11;;;;;;;15.00;9.97;;;4.70;99.90;;;;;;5048355;28;20424;-79
2023/01/27 11:37:42;;;;;;;12.70;9.63;;;4.70;99.90;;;;;;5055812;28;20529;-78
2023/01/27 11:40:37;;;;;;;15.30;9.97;;;4.90;99.90;;;;;;5043819;28;20432;-78
2023/01/27 11:43:03;;;;;;;11.83;8.97;;;4.90;99.90;;;;;;5051257;28;21079;-78
2023/01/27 11:45:36;;;;;;;12.77;9.17;;;4.80;99.90;;;;;;5015843;28;20456;-78
2023/01/27 11:48:08;;;;;;;11.53;8.00;;;4.80;99.90;;;;;;5050525;28;20473;-78
2023/01/27 11:50:35;;;;;;;12.13;8.83;;;4.90;99.90;;;;;;5051206;28;20935;-78
2023/01/27 11:53:21;;;;;;;11.43;9.00;;;4.70;99.90;;;;;;5051310;28;20417;-78
2023/01/27 11:55:54;;;;;;;11.40;7.90;;;4.80;99.90;;;;;;5051172;28;20428;-78
2023/01/27 11:58:29;;;;;;;12.60;8.10;;;5.00;99.90;;;;;;5050833;28;20473;-78
2023/01/27 12:01:00;;;;;;;11.20;7.30;;;4.80;99.90;;;;;;5033590;28;20408;-78
2023/01/27 12:03:43;;;;;;;10.83;7.47;;;4.60;99.90;;;;;;5055073;28;20420;-78
2023/01/27 12:06:25;;;;;;;11.30;8.23;;;4.80;99.90;;;;;;5054708;28;20490;-78
2023/01/27 12:08:50;;;;;;;9.50;7.30;;;4.90;99.90;;;;;;5036517;28;21118;-78
2023/01/27 12:11:20;;;;;;;9.80;7.47;;;4.70;99.90;;;;;;5055433;28;20408;-79
2023/01/27 12:13:54;;;;;;;8.83;6.30;;;4.80;99.90;;;;;;5020943;28;20189;-78
2023/01/27 12:16:55;;;;;;;11.40;8.00;;;4.90;99.90;;;;;;5020473;28;20951;-77
2023/01/27 12:19:39;;;;;;;8.90;6.40;;;4.80;99.90;;;;;;5008105;28;20432;-77
2023/01/27 12:22:23;;;;;;;8.80;6.60;;;4.70;99.90;;;;;;5052994;28;20475;-78
2023/01/27 12:24:52;;;;;;;8.70;6.10;;;4.90;99.90;;;;;;5053477;28;20460;-78
2023/01/27 12:27:22;;;;;;;7.37;5.63;;;4.70;99.90;;;;;;5054146;28;20440;-78
2023/01/27 12:29:54;;;;;;;9.03;5.87;;;4.70;99.90;;;;;;5035919;28;20416;-79
2023/01/27 12:32:25;;;;;;;6.30;5.17;;;4.80;99.90;;;;;;5054865;28;20424;-79
2023/01/27 12:34:55;;;;;;;5.70;5.10;;;4.80;99.90;;;;;;5036892;28;20428;-79
2023/01/27 12:37:35;;;;;;;6.80;4.90;;;4.80;99.90;;;;;;5055194;28;20994;-79
2023/01/27 12:40:03;;;;;;;9.53;5.07;;;4.80;99.90;;;;;;5036100;28;20428;-79
2023/01/27 12:42:41;;;;;;;7.73;6.50;;;4.70;99.90;;;;;;5036623;28;20907;-79
2023/01/27 12:45:32;;;;;;;7.10;6.13;;;4.80;99.90;;;;;;5019989;28;20902;-79
2023/01/27 12:48:00;;;;;;;6.27;5.43;;;4.70;99.90;;;;;;5054708;28;20936;-78
2023/01/27 12:50:41;;;;;;;5.87;5.10;;;4.80;99.90;;;;;;5054361;28;20912;-79
2023/01/27 12:53:15;;;;;;;5.70;4.70;;;5.00;99.90;;;;;;5020152;28;20811;-79
2023/01/27 12:55:45;;;;;;;4.87;3.87;;;4.90;99.90;;;;;;5051262;28;20436;-79
2023/01/27 12:59:02;;;;;;;4.13;3.60;;;5.10;99.90;;;;;;5008817;28;20791;-78
2023/01/27 13:01:29;;;;;;;4.47;3.87;;;4.90;99.90;;;;;;4992705;28;20505;-79
2023/01/27 13:03:56;;;;;;;9.00;6.03;;;5.00;99.90;;;;;;5036242;28;20425;-78
2023/01/27 13:06:42;;;;;;;5.40;4.90;;;5.00;99.90;;;;;;5053691;28;20440;-78
2023/01/27 13:09:35;;;;;;;5.00;4.50;;;4.90;99.90;;;;;;5034159;28;20614;-79
2023/01/27 13:12:11;;;;;;;5.17;4.63;;;4.80;99.90;;;;;;5018502;28;20408;-78
2023/01/27 13:14:41;;;;;;;5.67;3.87;;;5.00;99.90;;;;;;5054019;28;20907;-78
2023/01/27 13:17:27;;;;;;;6.23;3.50;;;5.00;99.90;;;;;;5000235;28;20495;-79
2023/01/27 13:19:57;;;;;;;4.27;3.87;;;5.10;99.90;;;;;;5032014;28;20417;-78
2023/01/27 13:22:25;;;;;;;4.03;3.60;;;4.90;99.90;;;;;;5044081;28;20428;-79
2023/01/27 13:24:57;;;;;;;3.80;3.40;;;4.90;99.90;;;;;;5056767;28;20487;-77
2023/01/27 13:27:24;;;;;;;4.37;3.90;;;5.10;99.90;;;;;;5035403;28;20429;-79
2023/01/27 13:30:04;;;;;;;3.93;3.10;;;4.90;99.90;;;;;;5020884;28;20423;-78
2023/01/27 13:32:33;;;;;;;3.80;3.20;;;5.10;99.90;;;;;;5035648;28;20419;-78